createdAt,value
2022-10-30T00:02:37.234Z,19.73
2022-10-30T00:06:40.053Z,19.77
2022-10-30T00:10:40.217Z,19.81
2022-10-30T00:14:40.387Z,19.88
2022-10-30T00:18:42.378Z,19.86
2022-10-30T00:22:45.163Z,19.93
2022-10-30T00:26:45.353Z,19.92
2022-10-30T00:30:45.500Z,19.74
2022-10-30T00:34:45.587Z,19.60
2022-10-30T00:38:48.285Z,19.63
2022-10-30T00:42:48.682Z,19.58
2022-10-30T00:46:49.580Z,19.63
2022-10-30T00:50:49.865Z,19.72
2022-10-30T00:54:53.445Z,19.71
2022-10-30T00:58:59.761Z,19.54
2022-10-30T01:03:01.344Z,19.79
2022-10-30T01:07:08.385Z,19.72
2022-10-30T01:11:13.085Z,19.70
2022-10-30T01:15:16.285Z,19.72
2022-10-30T01:19:27.685Z,19.72
2022-10-30T01:23:42.205Z,19.69
2022-10-30T01:28:01.483Z,19.64
2022-10-30T01:32:21.994Z,19.63
2022-10-30T01:36:32.153Z,19.55
2022-10-30T01:40:32.582Z,19.61
2022-10-30T01:44:36.972Z,19.58
2022-10-30T01:49:17.694Z,18.40
2022-10-30T01:53:34.369Z,18.20
2022-10-30T01:57:44.018Z,18.15
2022-10-30T02:01:49.560Z,18.70
2022-10-30T02:05:54.404Z,18.79
2022-10-30T02:09:58.229Z,18.98
2022-10-30T02:14:03.178Z,19.03
2022-10-30T02:18:06.846Z,19.21
2022-10-30T02:22:09.987Z,19.26
2022-10-30T02:26:10.267Z,19.25
2022-10-30T02:30:12.633Z,19.26
2022-10-30T02:34:12.718Z,19.32
2022-10-30T02:38:15.490Z,19.25
2022-10-30T02:42:15.660Z,19.21
2022-10-30T02:46:15.814Z,19.24
2022-10-30T02:50:16.471Z,19.28
2022-10-30T02:54:19.294Z,19.26
2022-10-30T02:58:19.767Z,19.18
2022-10-30T03:02:20.143Z,19.23
2022-10-30T03:06:21.035Z,19.21
2022-10-30T03:10:23.809Z,19.16
2022-10-30T03:14:23.957Z,19.12
2022-10-30T03:18:24.497Z,19.06
2022-10-30T03:22:24.660Z,18.80
2022-10-30T03:26:27.500Z,18.87
2022-10-30T03:30:33.940Z,18.92
2022-10-30T03:34:34.855Z,18.98
2022-10-30T03:38:38.531Z,18.98
2022-10-30T03:42:43.224Z,19.04
2022-10-30T03:46:43.444Z,19.11
2022-10-30T03:50:55.234Z,19.08
2022-10-30T03:54:55.361Z,19.15
2022-10-30T03:58:58.286Z,19.07
2022-10-30T04:02:59.043Z,19.08
2022-10-30T04:07:00.468Z,19.02
2022-10-30T04:11:00.739Z,18.92
2022-10-30T04:15:03.611Z,18.64
2022-10-30T04:19:03.891Z,18.58
2022-10-30T04:23:06.978Z,18.67
2022-10-30T04:27:07.254Z,18.60
2022-10-30T04:31:10.076Z,18.42
2022-10-30T04:35:11.645Z,18.46
2022-10-30T04:39:12.673Z,18.56
2022-10-30T04:43:15.770Z,18.47
2022-10-30T04:47:22.584Z,18.55
2022-10-30T04:51:23.120Z,18.54
2022-10-30T04:55:23.624Z,18.56
2022-10-30T04:59:24.080Z,18.53
2022-10-30T05:03:29.248Z,18.41
2022-10-30T05:07:29.485Z,18.39
2022-10-30T05:11:29.693Z,18.36
2022-10-30T05:15:29.933Z,18.34
2022-10-30T05:19:32.713Z,18.30
2022-10-30T05:23:32.980Z,18.25
2022-10-30T05:27:33.814Z,18.11
2022-10-30T05:31:35.524Z,18.08
2022-10-30T05:35:53.117Z,18.28
2022-10-30T05:39:53.815Z,18.13
2022-10-30T05:44:02.486Z,18.28
2022-10-30T05:48:05.635Z,18.13
2022-10-30T05:52:14.815Z,17.92
2022-10-30T05:56:15.128Z,17.97
2022-10-30T06:00:17.652Z,17.91
2022-10-30T06:04:18.104Z,17.78
2022-10-30T06:08:21.164Z,17.83
2022-10-30T06:12:24.169Z,17.89
2022-10-30T06:21:01.569Z,18.01
2022-10-30T06:25:34.082Z,17.97
2022-10-30T06:30:08.395Z,18.04
2022-10-30T06:34:08.617Z,18.04
2022-10-30T06:38:12.090Z,18.16
2022-10-30T06:42:14.876Z,18.24
2022-10-30T06:46:30.615Z,18.28
2022-10-30T06:50:33.672Z,18.57
2022-10-30T06:54:34.215Z,18.78
2022-10-30T06:58:39.248Z,18.98
2022-10-30T07:02:45.350Z,19.33
2022-10-30T07:06:47.011Z,19.40
2022-10-30T07:10:47.112Z,19.69
2022-10-30T07:15:14.073Z,19.79
2022-10-30T07:19:33.652Z,19.89
2022-10-30T07:23:33.794Z,20.28
2022-10-30T07:27:49.586Z,20.45
2022-10-30T07:32:18.434Z,20.99
2022-10-30T07:36:37.261Z,21.19
2022-10-30T07:40:59.047Z,21.19
2022-10-30T07:45:16.658Z,21.60
2022-10-30T07:49:51.620Z,21.78
2022-10-30T07:53:51.834Z,21.84
2022-10-30T07:57:53.830Z,22.10
2022-10-30T08:02:13.688Z,21.85
2022-10-30T08:06:48.405Z,21.93
2022-10-30T08:10:48.630Z,22.00
2022-10-30T08:14:49.326Z,22.43
2022-10-30T08:18:49.709Z,22.51
2022-10-30T08:22:57.897Z,22.37
2022-10-30T08:26:58.537Z,22.71
2022-10-30T08:31:02.437Z,23.18
2022-10-30T08:35:22.578Z,23.32
2022-10-30T08:39:25.321Z,23.43
2022-10-30T08:48:01.025Z,23.33
2022-10-30T08:52:02.195Z,23.07
2022-10-30T08:56:02.392Z,23.55
2022-10-30T09:00:17.764Z,23.87
2022-10-30T09:04:42.921Z,24.76
2022-10-30T09:09:12.089Z,24.68
2022-10-30T09:13:18.756Z,24.76
2022-10-30T09:17:19.361Z,24.85
2022-10-30T09:21:24.087Z,25.03
2022-10-30T09:25:26.839Z,25.63
2022-10-30T09:29:39.179Z,25.96
2022-10-30T09:33:42.494Z,26.56
2022-10-30T09:38:05.254Z,27.02
2022-10-30T09:42:45.595Z,27.83
2022-10-30T09:47:05.136Z,28.31
2022-10-30T09:51:23.570Z,28.52
2022-10-30T09:55:43.458Z,28.55
2022-10-30T10:00:04.448Z,29.62
2022-10-30T10:04:29.300Z,29.36
2022-10-30T10:08:40.549Z,30.03
2022-10-30T10:13:01.419Z,29.92
2022-10-30T10:17:07.720Z,29.71
2022-10-30T10:21:18.387Z,29.81
2022-10-30T10:25:22.501Z,29.96
2022-10-30T10:29:49.776Z,29.63
2022-10-30T10:34:09.165Z,30.47
2022-10-30T10:38:26.896Z,30.00
2022-10-30T10:42:42.775Z,30.23
2022-10-30T10:47:16.267Z,30.33
2022-10-30T10:51:23.855Z,30.63
2022-10-30T10:55:30.681Z,30.58
2022-10-30T10:59:41.129Z,31.26
2022-10-30T11:03:57.871Z,31.11
2022-10-30T11:08:06.829Z,32.28
2022-10-30T11:12:09.045Z,31.62
2022-10-30T11:16:28.081Z,32.18
2022-10-30T11:20:38.877Z,32.58
2022-10-30T11:24:39.847Z,32.66
2022-10-30T11:28:53.131Z,33.06
2022-10-30T11:32:55.472Z,33.30
2022-10-30T11:37:00.246Z,33.62
2022-10-30T11:41:00.687Z,34.53
2022-10-30T11:45:01.033Z,34.97
2022-10-30T11:49:01.193Z,35.62
2022-10-30T11:53:13.946Z,35.41
2022-10-30T11:57:36.365Z,35.78
2022-10-30T12:01:39.795Z,36.03
2022-10-30T12:05:45.064Z,35.35
2022-10-30T12:09:49.941Z,34.65
2022-10-30T12:13:50.229Z,34.72
2022-10-30T12:17:56.177Z,35.30
2022-10-30T12:22:01.514Z,36.07
2022-10-30T12:26:12.546Z,35.35
2022-10-30T12:30:22.643Z,35.85
2022-10-30T12:34:39.965Z,36.30
2022-10-30T12:38:48.281Z,35.10
2022-10-30T12:43:01.479Z,34.62
2022-10-30T12:47:12.330Z,35.14
2022-10-30T12:51:24.696Z,35.28
2022-10-30T12:55:34.472Z,35.51
2022-10-30T12:59:54.290Z,35.66
2022-10-30T13:04:03.596Z,35.95
2022-10-30T13:08:17.390Z,36.39
2022-10-30T13:12:24.691Z,35.81
2022-10-30T13:16:32.451Z,35.16
2022-10-30T13:20:34.462Z,35.12
2022-10-30T13:24:52.223Z,34.73
2022-10-30T13:29:05.473Z,34.29
2022-10-30T13:33:22.122Z,34.28
2022-10-30T13:37:32.206Z,33.42
2022-10-30T13:41:45.590Z,33.53
2022-10-30T13:46:10.185Z,33.06
2022-10-30T13:50:33.699Z,32.34
2022-10-30T13:54:40.024Z,33.09
2022-10-30T13:58:50.500Z,33.46
2022-10-30T14:03:26.213Z,33.72
2022-10-30T14:07:41.205Z,34.18
2022-10-30T14:11:41.327Z,34.04
2022-10-30T14:15:47.110Z,34.07
2022-10-30T14:20:29.789Z,33.27
2022-10-30T14:24:35.621Z,33.41
2022-10-30T14:28:38.870Z,33.35
2022-10-30T14:32:44.224Z,33.21
2022-10-30T14:36:53.645Z,32.74
2022-10-30T14:41:27.824Z,32.20
2022-10-30T14:45:36.841Z,31.63
2022-10-30T14:50:02.208Z,30.99
2022-10-30T14:54:15.573Z,30.14
2022-10-30T14:58:28.097Z,29.39
2022-10-30T15:02:47.292Z,29.41
2022-10-30T15:07:04.284Z,28.99
2022-10-30T15:11:25.268Z,28.72
2022-10-30T15:15:28.781Z,28.27
2022-10-30T15:19:30.528Z,28.11
2022-10-30T15:23:33.961Z,27.64
2022-10-30T15:27:37.011Z,27.46
2022-10-30T15:31:39.910Z,27.22
2022-10-30T15:35:39.992Z,26.96
2022-10-30T15:39:40.080Z,26.74
2022-10-30T15:43:45.676Z,26.26
2022-10-30T15:48:00.450Z,26.03
2022-10-30T15:52:02.391Z,25.87
2022-10-30T15:56:03.294Z,25.65
2022-10-30T16:00:10.702Z,25.17
2022-10-30T16:04:21.539Z,24.89
2022-10-30T16:08:25.540Z,24.67
2022-10-30T16:12:29.112Z,24.46
2022-10-30T16:16:33.731Z,24.33
2022-10-30T16:20:37.411Z,24.16
2022-10-30T16:24:39.005Z,24.10
2022-10-30T16:28:40.945Z,23.77
2022-10-30T16:32:45.924Z,23.56
2022-10-30T16:36:49.104Z,23.35
2022-10-30T16:40:50.400Z,23.17
2022-10-30T16:44:51.853Z,23.12
2022-10-30T16:49:00.901Z,22.93
2022-10-30T16:53:08.616Z,22.49
2022-10-30T16:57:22.636Z,22.42
2022-10-30T17:01:28.869Z,22.32
2022-10-30T17:05:33.828Z,22.13
2022-10-30T17:09:41.324Z,22.16
2022-10-30T17:13:44.376Z,22.09
2022-10-30T17:17:45.273Z,21.98
2022-10-30T17:21:45.916Z,21.91
2022-10-30T17:25:49.808Z,21.82
2022-10-30T17:29:50.289Z,21.68
2022-10-30T17:33:51.993Z,21.67
2022-10-30T17:37:52.301Z,21.55
2022-10-30T17:41:59.878Z,21.44
2022-10-30T17:46:00.769Z,21.27
2022-10-30T17:50:03.190Z,21.12
2022-10-30T17:54:03.684Z,21.15
2022-10-30T17:58:06.433Z,21.05
2022-10-30T18:02:15.140Z,20.99
2022-10-30T18:06:21.197Z,21.00
2022-10-30T18:10:21.514Z,20.84
2022-10-30T18:14:24.182Z,20.63
2022-10-30T18:18:24.372Z,20.68
2022-10-30T18:22:24.626Z,20.63
2022-10-30T18:26:27.890Z,20.47
2022-10-30T18:30:31.456Z,20.45
2022-10-30T18:34:31.568Z,20.25
2022-10-30T18:38:31.707Z,20.29
2022-10-30T18:42:31.882Z,20.19
2022-10-30T18:46:36.431Z,20.04
2022-10-30T18:50:38.003Z,19.89
2022-10-30T18:54:38.117Z,19.73
2022-10-30T18:58:38.274Z,19.64
2022-10-30T19:02:41.194Z,19.64
2022-10-30T19:06:41.511Z,19.68
2022-10-30T19:10:44.397Z,19.58
2022-10-30T19:14:44.603Z,19.54
2022-10-30T19:18:51.126Z,19.48
2022-10-30T19:22:51.262Z,19.44
2022-10-30T19:26:51.334Z,19.50
2022-10-30T19:30:54.951Z,19.35
2022-10-30T19:34:57.865Z,19.25
2022-10-30T19:39:00.780Z,19.21
2022-10-30T19:43:03.743Z,19.09
2022-10-30T19:47:03.872Z,19.03
2022-10-30T19:51:07.306Z,19.06
2022-10-30T19:55:08.717Z,18.97
2022-10-30T19:59:12.705Z,19.05
2022-10-30T20:03:18.920Z,19.04
2022-10-30T20:07:21.821Z,19.08
2022-10-30T20:11:21.922Z,18.99
2022-10-30T20:15:25.295Z,19.00
2022-10-30T20:19:32.753Z,18.97
2022-10-30T20:23:35.601Z,18.80
2022-10-30T20:27:35.757Z,18.63
2022-10-30T20:31:36.009Z,18.61
2022-10-30T20:35:36.218Z,18.55
2022-10-30T20:39:39.380Z,18.65
2022-10-30T20:43:41.924Z,18.61
2022-10-30T20:47:42.149Z,18.63
2022-10-30T20:51:42.284Z,18.59
2022-10-30T20:55:45.210Z,18.41
2022-10-30T20:59:45.566Z,18.31
2022-10-30T21:03:45.834Z,18.18
2022-10-30T21:07:46.011Z,18.14
2022-10-30T21:11:48.997Z,18.17
2022-10-30T21:15:51.394Z,18.15
2022-10-30T21:19:51.537Z,18.26
2022-10-30T21:23:51.632Z,18.25
2022-10-30T21:27:54.519Z,18.37
2022-10-30T21:31:54.922Z,18.24
2022-10-30T21:35:55.203Z,18.23
2022-10-30T21:39:55.437Z,17.99
2022-10-30T21:44:00.833Z,18.10
2022-10-30T21:48:00.975Z,17.96
2022-10-30T21:52:01.565Z,17.86
2022-10-30T21:56:05.568Z,17.77
2022-10-30T22:00:10.559Z,17.58
2022-10-30T22:04:13.155Z,17.56
2022-10-30T22:08:13.275Z,17.64
2022-10-30T22:12:13.615Z,17.49
2022-10-30T22:16:18.002Z,17.46
2022-10-30T22:20:19.508Z,17.48
2022-10-30T22:24:19.801Z,17.50
2022-10-30T22:28:19.949Z,17.41
2022-10-30T22:32:23.040Z,17.19
2022-10-30T22:36:26.069Z,17.32
2022-10-30T22:40:26.535Z,17.34
2022-10-30T22:44:28.660Z,17.38
2022-10-30T22:48:31.814Z,17.30
2022-10-30T22:52:32.334Z,17.41
2022-10-30T22:56:35.183Z,17.41
2022-10-30T23:00:35.329Z,17.15
2022-10-30T23:04:38.336Z,17.05
2022-10-30T23:08:39.455Z,17.23
2022-10-30T23:12:39.584Z,17.40
2022-10-30T23:16:39.844Z,17.42
2022-10-30T23:20:43.804Z,17.42
2022-10-30T23:24:43.894Z,17.38
2022-10-30T23:28:45.380Z,17.46
2022-10-30T23:32:45.520Z,17.32
2022-10-30T23:36:48.307Z,17.30
2022-10-30T23:40:48.730Z,17.27
2022-10-30T23:44:48.792Z,17.21
2022-10-30T23:48:48.899Z,17.29
2022-10-30T23:52:51.761Z,16.91
2022-10-30T23:56:51.912Z,17.21
